createdAt,value
2023-03-02T00:01:16.513Z,19
2023-03-02T00:06:16.538Z,16
2023-03-02T00:11:16.515Z,14
2023-03-02T00:16:16.503Z,16
2023-03-02T00:21:16.515Z,12
2023-03-02T00:26:16.504Z,16
2023-03-02T00:31:16.516Z,17
2023-03-02T00:36:16.516Z,18
2023-03-02T00:41:16.506Z,17
2023-03-02T00:46:16.518Z,14
2023-03-02T00:51:16.507Z,17
2023-03-02T00:56:16.518Z,17
2023-03-02T01:01:16.518Z,17
2023-03-02T01:06:16.519Z,18
2023-03-02T01:11:16.520Z,20
2023-03-02T01:16:16.509Z,17
2023-03-02T01:21:16.522Z,15
2023-03-02T01:26:16.509Z,18
2023-03-02T01:31:16.521Z,16
2023-03-02T01:36:16.521Z,21
2023-03-02T01:41:16.522Z,23
2023-03-02T01:46:16.523Z,18
2023-03-02T01:51:16.511Z,15
2023-03-02T01:56:16.523Z,17
2023-03-02T02:01:16.512Z,21
2023-03-02T02:06:16.524Z,20
2023-03-02T02:11:16.524Z,20
2023-03-02T02:16:16.513Z,23
2023-03-02T02:21:16.525Z,19
2023-03-02T02:26:16.514Z,21
2023-03-02T02:31:16.526Z,20
2023-03-02T02:36:16.526Z,19
2023-03-02T02:41:16.526Z,21
2023-03-02T02:46:16.527Z,21
2023-03-02T02:51:16.516Z,21
2023-03-02T02:56:16.527Z,21
2023-03-02T03:01:16.517Z,20
2023-03-02T03:06:16.528Z,18
2023-03-02T03:11:16.528Z,19
2023-03-02T03:16:16.518Z,22
2023-03-02T03:21:16.530Z,20
2023-03-02T03:26:16.519Z,19
2023-03-02T03:31:16.530Z,22
2023-03-02T03:36:16.530Z,19
2023-03-02T03:41:16.531Z,22
2023-03-02T03:46:16.532Z,21
2023-03-02T03:51:16.521Z,18
2023-03-02T03:56:16.532Z,19
2023-03-02T04:01:16.521Z,20
2023-03-02T04:06:16.533Z,21
2023-03-02T04:11:16.533Z,21
2023-03-02T04:16:16.522Z,21
2023-03-02T04:21:16.534Z,19
2023-03-02T04:26:16.523Z,20
2023-03-02T04:31:16.534Z,19
2023-03-02T04:36:16.524Z,19
2023-03-02T04:41:16.535Z,18
2023-03-02T04:46:16.536Z,21
2023-03-02T04:51:16.525Z,19
2023-03-02T04:56:16.538Z,16
2023-03-02T05:01:16.525Z,21
2023-03-02T05:06:16.537Z,18
2023-03-02T05:11:16.537Z,17
2023-03-02T05:16:16.537Z,16
2023-03-02T05:21:16.538Z,16
2023-03-02T05:26:16.527Z,17
2023-03-02T05:31:16.538Z,14
2023-03-02T05:36:16.528Z,17
2023-03-02T05:41:16.539Z,21
2023-03-02T05:46:16.539Z,18
2023-03-02T05:51:16.529Z,22
2023-03-02T05:56:16.541Z,18
2023-03-02T06:01:16.529Z,20
2023-03-02T06:06:16.541Z,23
2023-03-02T06:11:16.541Z,27
2023-03-02T06:16:16.541Z,23
2023-03-02T06:21:16.542Z,23
2023-03-02T06:26:16.531Z,19
2023-03-02T06:31:16.542Z,25
2023-03-02T06:36:16.532Z,19
2023-03-02T06:41:16.543Z,31
2023-03-02T06:46:16.543Z,26
2023-03-02T06:51:16.533Z,28
2023-03-02T06:56:16.545Z,18
2023-03-02T07:01:16.534Z,26
2023-03-02T07:06:16.545Z,23
2023-03-02T07:11:16.545Z,16
2023-03-02T07:16:16.546Z,25
2023-03-02T07:21:16.547Z,20
2023-03-02T07:26:16.536Z,25
2023-03-02T07:31:16.547Z,22
2023-03-02T07:36:16.537Z,22
2023-03-02T07:41:16.549Z,24
2023-03-02T07:46:16.550Z,24
2023-03-02T07:51:16.552Z,27
2023-03-02T07:56:16.554Z,23
2023-03-02T08:01:16.543Z,31
2023-03-02T08:06:16.556Z,31
2023-03-02T08:11:16.546Z,25
2023-03-02T08:16:16.559Z,30
2023-03-02T08:21:16.568Z,32
2023-03-02T08:26:16.551Z,31
2023-03-02T08:31:16.563Z,28
2023-03-02T08:36:16.553Z,29
2023-03-02T08:41:16.565Z,26
2023-03-02T08:46:16.566Z,23
2023-03-02T08:51:16.568Z,26
2023-03-02T08:56:16.570Z,31
2023-03-02T09:01:16.560Z,24
2023-03-02T09:06:16.573Z,27
2023-03-02T09:11:16.564Z,24
2023-03-02T09:16:16.576Z,30
2023-03-02T09:21:16.578Z,34
2023-03-02T09:26:16.569Z,30
2023-03-02T09:31:16.582Z,37
2023-03-02T09:36:16.573Z,35
2023-03-02T09:41:16.586Z,34
2023-03-02T09:46:16.587Z,26
2023-03-02T09:51:16.590Z,29
2023-03-02T09:56:16.592Z,36
2023-03-02T10:01:16.583Z,30
2023-03-02T10:06:16.596Z,30
2023-03-02T10:11:16.587Z,24
2023-03-02T10:16:16.600Z,42
2023-03-02T10:21:16.602Z,32
2023-03-02T10:26:16.593Z,25
2023-03-02T10:31:16.607Z,42
2023-03-02T10:36:16.598Z,35
2023-03-02T10:41:16.611Z,35
2023-03-02T10:46:16.613Z,34
2023-03-02T10:51:16.616Z,31
2023-03-02T10:56:16.618Z,31
2023-03-02T11:01:16.609Z,37
2023-03-02T11:06:16.622Z,37
2023-03-02T11:11:16.614Z,30
2023-03-02T11:16:16.627Z,36
2023-03-02T11:21:16.630Z,44
2023-03-02T11:26:16.697Z,41
2023-03-02T11:31:16.635Z,43
2023-03-02T11:36:16.626Z,34
2023-03-02T11:41:16.639Z,48
2023-03-02T11:46:16.631Z,42
2023-03-02T11:51:16.644Z,32
2023-03-02T11:56:16.646Z,34
2023-03-02T12:01:16.638Z,35
2023-03-02T12:06:16.652Z,41
2023-03-02T12:11:16.643Z,54
2023-03-02T12:16:16.656Z,47
2023-03-02T12:21:16.659Z,55
2023-03-02T12:26:16.661Z,43
2023-03-02T12:31:16.665Z,38
2023-03-02T12:36:16.656Z,35
2023-03-02T12:41:16.736Z,39
2023-03-02T12:46:16.661Z,41
2023-03-02T12:51:16.674Z,35
2023-03-02T12:56:16.677Z,42
2023-03-02T13:01:16.669Z,41
2023-03-02T13:06:16.682Z,35
2023-03-02T13:11:16.684Z,42
2023-03-02T13:16:16.687Z,38
2023-03-02T13:21:16.678Z,38
2023-03-02T13:26:16.691Z,42
2023-03-02T13:31:16.693Z,36
2023-03-02T13:36:16.684Z,33
2023-03-02T13:41:16.698Z,29
2023-03-02T13:46:16.688Z,35
2023-03-02T13:51:16.702Z,35
2023-03-02T13:56:16.703Z,35
2023-03-02T14:01:16.706Z,32
2023-03-02T14:06:16.709Z,39
2023-03-02T14:11:16.699Z,37
2023-03-02T14:16:16.712Z,31
2023-03-02T14:21:16.704Z,39
2023-03-02T14:26:16.717Z,40
2023-03-02T14:31:16.719Z,29
2023-03-02T14:36:16.710Z,36
2023-03-02T14:41:16.724Z,31
2023-03-02T14:46:16.715Z,29
2023-03-02T14:51:16.728Z,30
2023-03-02T14:56:16.730Z,33
2023-03-02T15:01:16.732Z,26
2023-03-02T15:06:16.735Z,30
2023-03-02T15:11:16.724Z,44
2023-03-02T15:16:16.737Z,41
2023-03-02T15:21:16.728Z,39
2023-03-02T15:26:16.741Z,32
2023-03-02T15:31:16.742Z,39
2023-03-02T15:36:16.733Z,35
2023-03-02T15:41:16.746Z,33
2023-03-02T15:46:16.736Z,36
2023-03-02T15:51:16.748Z,34
2023-03-02T15:56:16.750Z,33
2023-03-02T16:01:16.752Z,44
2023-03-02T16:06:16.754Z,36
2023-03-02T16:11:16.744Z,28
2023-03-02T16:16:16.756Z,42
2023-03-02T16:21:16.747Z,37
2023-03-02T16:26:16.759Z,36
2023-03-02T16:31:16.760Z,42
2023-03-02T16:36:16.751Z,26
2023-03-02T16:41:16.764Z,39
2023-03-02T16:46:16.754Z,36
2023-03-02T16:51:16.766Z,46
2023-03-02T16:56:16.756Z,30
2023-03-02T17:01:16.769Z,37
2023-03-02T17:06:16.778Z,31
2023-03-02T17:11:16.761Z,30
2023-03-02T17:16:16.773Z,37
2023-03-02T17:21:16.763Z,22
2023-03-02T17:26:16.776Z,30
2023-03-02T17:31:16.777Z,24
2023-03-02T17:36:16.778Z,23
2023-03-02T17:41:16.780Z,28
2023-03-02T17:46:16.770Z,17
2023-03-02T17:51:16.782Z,17
2023-03-02T17:56:16.772Z,24
2023-03-02T18:01:16.785Z,21
2023-03-02T18:06:16.786Z,23
2023-03-02T18:11:16.776Z,19
2023-03-02T18:16:16.789Z,30
2023-03-02T18:21:16.779Z,14
2023-03-02T18:26:16.791Z,18
2023-03-02T18:31:16.792Z,19
2023-03-02T18:36:16.793Z,31
2023-03-02T18:41:16.795Z,26
2023-03-02T18:46:16.785Z,24
2023-03-02T18:51:16.797Z,24
2023-03-02T18:56:16.787Z,22
2023-03-02T19:01:16.799Z,21
2023-03-02T19:06:16.801Z,23
2023-03-02T19:11:16.791Z,16
2023-03-02T19:16:16.803Z,17
2023-03-02T19:21:16.793Z,28
2023-03-02T19:26:16.805Z,20
2023-03-02T19:31:16.806Z,22
2023-03-02T19:36:16.807Z,21
2023-03-02T19:41:16.816Z,25
2023-03-02T19:51:16.811Z,21
2023-03-02T19:56:16.801Z,25
2023-03-02T20:01:16.813Z,23
2023-03-02T20:06:16.814Z,24
2023-03-02T20:11:16.804Z,18
2023-03-02T20:16:16.817Z,26
2023-03-02T20:21:16.806Z,25
2023-03-02T20:26:16.818Z,23
2023-03-02T20:31:16.808Z,16
2023-03-02T20:36:16.820Z,22
2023-03-02T20:41:16.821Z,16
2023-03-02T20:46:16.811Z,15
2023-03-02T20:51:16.824Z,20
2023-03-02T20:56:16.813Z,18
2023-03-02T21:01:16.825Z,19
2023-03-02T21:06:16.826Z,18
2023-03-02T21:11:16.827Z,22
2023-03-02T21:16:16.829Z,26
2023-03-02T21:21:16.818Z,20
2023-03-02T21:31:16.820Z,17
2023-03-02T21:36:16.832Z,19
2023-03-02T21:41:16.833Z,22
2023-03-02T21:46:16.823Z,17
2023-03-02T21:51:16.835Z,18
2023-03-02T21:56:16.825Z,21
2023-03-02T22:01:16.836Z,16
2023-03-02T22:06:16.837Z,20
2023-03-02T22:11:16.838Z,17
2023-03-02T22:16:16.840Z,18
2023-03-02T22:21:16.829Z,22
2023-03-02T22:26:16.891Z,15
2023-03-02T22:31:16.830Z,16
2023-03-02T22:36:16.891Z,16
2023-03-02T22:41:16.843Z,17
2023-03-02T22:46:16.844Z,18
2023-03-02T22:51:16.845Z,19
2023-03-02T22:56:16.834Z,13
2023-03-02T23:01:16.846Z,18
2023-03-02T23:06:16.835Z,19
2023-03-02T23:11:16.847Z,17
2023-03-02T23:16:16.847Z,20
2023-03-02T23:21:16.837Z,24
2023-03-02T23:26:16.849Z,20
2023-03-02T23:31:16.838Z,15
2023-03-02T23:36:16.850Z,22
2023-03-02T23:41:16.851Z,21
2023-03-02T23:46:16.851Z,21
2023-03-02T23:51:16.852Z,19
2023-03-02T23:56:16.842Z,20
